createdAt,value
2018-03-21T00:02:19.672Z,12.83
2018-03-21T00:04:47.222Z,15.03
2018-03-21T00:07:14.774Z,8.50
2018-03-21T00:09:42.601Z,12.87
2018-03-21T00:12:10.925Z,8.43
2018-03-21T00:14:38.583Z,9.40
2018-03-21T00:17:06.137Z,9.00
2018-03-21T00:19:33.681Z,7.30
2018-03-21T00:22:01.254Z,12.53
2018-03-21T00:24:28.797Z,7.07
2018-03-21T00:26:57.209Z,10.70
2018-03-21T00:29:24.865Z,8.63
2018-03-21T00:31:52.445Z,11.03
2018-03-21T00:34:20.006Z,7.47
2018-03-21T00:36:47.582Z,11.63
2018-03-21T00:39:15.202Z,8.73
2018-03-21T00:41:42.902Z,10.87
2018-03-21T00:44:10.457Z,9.13
2018-03-21T00:46:37.996Z,11.57
2018-03-21T00:49:05.565Z,9.50
2018-03-21T00:51:33.121Z,6.93
2018-03-21T00:54:00.694Z,6.80
2018-03-21T00:56:28.237Z,5.77
2018-03-21T00:58:55.793Z,9.57
2018-03-21T01:01:23.354Z,10.07
2018-03-21T01:03:50.913Z,9.37
2018-03-21T01:06:18.456Z,8.67
2018-03-21T01:08:46.045Z,7.73
2018-03-21T01:11:14.494Z,9.03
2018-03-21T01:13:42.037Z,9.27
2018-03-21T01:16:10.351Z,8.07
2018-03-21T01:18:37.896Z,9.90
2018-03-21T01:21:05.479Z,7.30
2018-03-21T01:23:33.032Z,8.97
2018-03-21T01:26:00.581Z,7.07
2018-03-21T01:28:28.168Z,8.33
2018-03-21T01:30:55.711Z,8.27
2018-03-21T01:33:23.248Z,6.33
2018-03-21T01:35:50.811Z,5.93
2018-03-21T01:38:18.346Z,7.73
2018-03-21T01:40:46.701Z,6.50
2018-03-21T01:43:14.344Z,6.60
2018-03-21T01:45:41.901Z,7.37
2018-03-21T01:48:09.495Z,5.97
2018-03-21T01:50:37.146Z,6.47
2018-03-21T01:53:10.585Z,7.53
2018-03-21T01:55:38.157Z,9.07
2018-03-21T01:58:05.737Z,7.87
2018-03-21T02:00:33.307Z,5.47
2018-03-21T02:03:00.862Z,8.67
2018-03-21T02:05:29.593Z,8.53
2018-03-21T02:07:58.003Z,7.17
2018-03-21T02:10:25.525Z,7.43
2018-03-21T02:12:53.121Z,7.30
2018-03-21T02:15:20.665Z,8.37
2018-03-21T02:17:48.228Z,10.70
2018-03-21T02:20:15.801Z,7.20
2018-03-21T02:22:43.367Z,9.27
2018-03-21T02:25:11.043Z,10.00
2018-03-21T02:27:38.588Z,9.73
2018-03-21T02:30:06.164Z,11.03
2018-03-21T02:32:33.896Z,7.20
2018-03-21T02:35:01.536Z,10.90
2018-03-21T02:37:29.234Z,7.83
2018-03-21T02:39:56.794Z,10.83
2018-03-21T02:42:24.409Z,15.00
2018-03-21T02:44:51.959Z,15.00
2018-03-21T02:47:19.558Z,15.00
2018-03-21T02:49:47.897Z,13.93
2018-03-21T02:52:15.462Z,9.33
2018-03-21T02:54:43.015Z,9.90
2018-03-21T02:57:12.107Z,12.77
2018-03-21T02:59:40.467Z,10.87
2018-03-21T03:02:08.024Z,10.50
2018-03-21T03:04:35.664Z,9.67
2018-03-21T03:07:03.209Z,11.00
2018-03-21T03:09:30.787Z,11.60
2018-03-21T03:11:58.348Z,10.83
2018-03-21T03:14:25.901Z,11.20
2018-03-21T03:16:53.476Z,10.70
2018-03-21T03:19:21.027Z,9.97
2018-03-21T03:21:48.610Z,11.97
2018-03-21T03:24:16.156Z,10.00
2018-03-21T03:26:43.713Z,15.23
2018-03-21T03:29:11.760Z,10.03
2018-03-21T03:31:40.112Z,11.00
2018-03-21T03:34:07.660Z,13.97
2018-03-21T03:36:35.242Z,15.00
2018-03-21T03:39:03.561Z,20.10
2018-03-21T03:41:31.113Z,13.60
2018-03-21T03:43:58.694Z,13.47
2018-03-21T03:46:26.266Z,15.20
2018-03-21T03:48:53.809Z,15.60
2018-03-21T03:51:21.386Z,11.37
2018-03-21T03:53:50.309Z,13.43
2018-03-21T03:56:18.627Z,15.97
2018-03-21T03:58:46.184Z,13.73
2018-03-21T04:01:13.809Z,13.20
2018-03-21T04:03:42.165Z,9.60
2018-03-21T04:06:09.708Z,12.87
2018-03-21T04:08:37.254Z,10.37
2018-03-21T04:11:04.825Z,10.40
2018-03-21T04:13:32.466Z,10.73
2018-03-21T04:16:00.038Z,9.83
2018-03-21T04:18:27.614Z,11.03
2018-03-21T04:20:55.162Z,7.07
2018-03-21T04:23:22.726Z,9.30
2018-03-21T04:25:50.314Z,10.23
2018-03-21T04:28:17.857Z,7.33
2018-03-21T04:30:45.434Z,13.30
2018-03-21T04:33:13.046Z,9.40
2018-03-21T04:35:40.597Z,12.40
2018-03-21T04:38:08.162Z,13.93
2018-03-21T04:40:35.715Z,14.67
2018-03-21T04:43:03.281Z,14.63
2018-03-21T04:45:30.844Z,11.53
2018-03-21T04:47:58.404Z,12.33
2018-03-21T04:50:25.976Z,12.30
2018-03-21T04:52:53.601Z,13.67
2018-03-21T04:55:21.958Z,12.63
2018-03-21T04:57:49.592Z,12.33
2018-03-21T05:00:18.247Z,14.10
2018-03-21T05:02:45.863Z,9.53
2018-03-21T05:05:13.505Z,15.40
2018-03-21T05:07:41.066Z,10.70
2018-03-21T05:10:08.618Z,10.80
2018-03-21T05:12:36.178Z,10.70
2018-03-21T05:15:03.811Z,9.90
2018-03-21T05:17:31.549Z,12.07
2018-03-21T05:20:00.037Z,6.43
2018-03-21T05:22:27.625Z,7.37
2018-03-21T05:24:56.250Z,11.80
2018-03-21T05:27:23.818Z,10.27
2018-03-21T05:29:51.388Z,11.03
2018-03-21T05:32:19.700Z,11.80
2018-03-21T05:34:47.270Z,9.03
2018-03-21T05:37:14.833Z,9.03
2018-03-21T05:39:42.393Z,10.47
2018-03-21T05:42:09.945Z,12.10
2018-03-21T05:44:37.541Z,12.33
2018-03-21T05:47:05.111Z,13.20
2018-03-21T05:49:32.688Z,10.67
2018-03-21T05:52:01.009Z,12.17
2018-03-21T05:54:28.577Z,9.93
2018-03-21T05:56:56.193Z,13.77
2018-03-21T05:59:24.521Z,10.93
2018-03-21T06:01:52.092Z,8.83
2018-03-21T06:04:19.704Z,14.33
2018-03-21T06:06:47.230Z,13.43
2018-03-21T06:09:14.817Z,9.40
2018-03-21T06:11:43.137Z,10.63
2018-03-21T06:14:10.737Z,13.97
2018-03-21T06:16:39.089Z,12.07
2018-03-21T06:19:06.642Z,10.73
2018-03-21T06:21:34.218Z,12.73
2018-03-21T06:24:01.776Z,13.33
2018-03-21T06:26:30.110Z,9.17
2018-03-21T06:28:57.676Z,11.30
2018-03-21T06:31:29.866Z,11.47
2018-03-21T06:34:04.120Z,10.63
2018-03-21T06:36:31.782Z,10.97
2018-03-21T06:39:00.097Z,10.47
2018-03-21T06:41:27.645Z,16.27
2018-03-21T06:43:55.208Z,11.53
2018-03-21T06:46:23.690Z,15.93
2018-03-21T06:48:51.257Z,16.43
2018-03-21T06:51:18.901Z,12.50
2018-03-21T06:53:46.454Z,15.00
2018-03-21T06:56:14.395Z,14.40
2018-03-21T06:58:42.097Z,12.77
2018-03-21T07:01:09.674Z,15.53
2018-03-21T07:03:37.290Z,11.43
2018-03-21T07:06:04.864Z,13.10
2018-03-21T07:08:33.182Z,14.37
2018-03-21T07:11:00.855Z,11.33
2018-03-21T07:16:44.581Z,15.27
2018-03-21T07:19:12.930Z,13.90
2018-03-21T07:21:41.256Z,13.20
2018-03-21T07:24:08.797Z,18.53
2018-03-21T07:26:36.369Z,15.73
2018-03-21T07:29:03.947Z,13.90
2018-03-21T07:31:31.580Z,17.63
2018-03-21T07:33:59.178Z,19.03
2018-03-21T07:36:26.787Z,16.13
2018-03-21T07:38:54.361Z,16.77
2018-03-21T07:41:22.005Z,20.40
2018-03-21T07:43:50.328Z,21.50
2018-03-21T07:46:17.943Z,24.13
2018-03-21T07:48:46.289Z,35.53
2018-03-21T07:51:13.852Z,42.50
2018-03-21T07:53:41.429Z,45.27
2018-03-21T07:56:09.047Z,47.50
2018-03-21T07:58:36.673Z,60.70
2018-03-21T08:01:04.228Z,64.60
2018-03-21T08:03:32.623Z,71.73
2018-03-21T08:06:00.997Z,79.17
2018-03-21T08:08:29.213Z,80.50
2018-03-21T08:10:56.798Z,88.43
2018-03-21T08:13:24.341Z,84.90
2018-03-21T08:15:51.924Z,111.37
2018-03-21T08:18:19.481Z,95.70
2018-03-21T08:20:47.050Z,108.93
2018-03-21T08:23:15.385Z,100.50
2018-03-21T08:25:42.938Z,98.80
2018-03-21T08:28:10.491Z,84.37
2018-03-21T08:30:38.044Z,88.23
2018-03-21T08:33:05.604Z,90.63
2018-03-21T08:35:33.264Z,76.87
2018-03-21T08:38:00.841Z,81.10
2018-03-21T08:40:28.413Z,84.40
2018-03-21T08:42:55.997Z,80.17
2018-03-21T08:45:23.567Z,86.67
2018-03-21T08:47:51.891Z,90.60
2018-03-21T08:50:19.459Z,94.67
2018-03-21T08:52:47.021Z,89.47
2018-03-21T08:55:14.649Z,89.53
2018-03-21T08:57:42.240Z,99.07
2018-03-21T09:00:09.817Z,90.33
2018-03-21T09:02:37.464Z,94.37
2018-03-21T09:05:05.052Z,92.03
2018-03-21T09:07:32.623Z,84.17
2018-03-21T09:10:00.248Z,90.90
2018-03-21T09:12:27.858Z,93.33
2018-03-21T09:14:56.188Z,98.63
2018-03-21T09:17:23.736Z,101.20
2018-03-21T09:19:51.306Z,92.40
2018-03-21T09:22:18.914Z,102.07
2018-03-21T09:24:47.381Z,84.07
2018-03-21T09:27:14.924Z,83.80
2018-03-21T09:29:42.648Z,83.87
2018-03-21T09:32:10.200Z,76.97
2018-03-21T09:34:37.762Z,78.67
2018-03-21T09:37:05.346Z,72.17
2018-03-21T09:39:32.984Z,68.90
2018-03-21T09:42:00.556Z,67.07
2018-03-21T09:44:28.133Z,64.90
2018-03-21T09:46:55.709Z,56.37
2018-03-21T09:49:23.294Z,54.93
2018-03-21T09:51:50.873Z,45.83
2018-03-21T09:54:19.238Z,36.03
2018-03-21T09:56:47.579Z,36.17
2018-03-21T09:59:15.136Z,28.80
2018-03-21T10:01:42.777Z,24.57
2018-03-21T10:04:10.337Z,23.23
2018-03-21T10:06:37.917Z,22.60
2018-03-21T10:09:05.461Z,22.10
2018-03-21T10:11:33.058Z,21.50
2018-03-21T10:14:00.622Z,19.30
2018-03-21T10:16:28.201Z,19.80
2018-03-21T10:18:56.514Z,22.27
2018-03-21T10:21:24.175Z,20.03
2018-03-21T10:23:51.750Z,23.10
2018-03-21T10:26:19.296Z,27.20
2018-03-21T10:28:46.882Z,24.87
2018-03-21T10:31:14.505Z,24.30
2018-03-21T10:33:42.089Z,22.93
2018-03-21T10:36:09.859Z,22.20
2018-03-21T10:38:37.426Z,25.93
2018-03-21T10:41:04.968Z,30.40
2018-03-21T10:43:32.534Z,29.80
2018-03-21T10:46:00.090Z,26.30
2018-03-21T10:48:28.808Z,29.80
2018-03-21T10:50:56.419Z,31.10
2018-03-21T10:53:24.086Z,29.07
2018-03-21T10:55:52.485Z,33.37
2018-03-21T10:58:20.041Z,35.23
2018-03-21T11:00:47.593Z,32.07
2018-03-21T11:03:15.296Z,32.20
2018-03-21T11:05:42.773Z,33.13
2018-03-21T11:08:11.209Z,36.67
2018-03-21T11:10:38.724Z,37.03
2018-03-21T11:13:07.649Z,30.33
2018-03-21T11:15:35.209Z,33.63
2018-03-21T11:18:03.644Z,38.57
2018-03-21T11:20:31.985Z,43.00
2018-03-21T11:22:59.553Z,41.93
2018-03-21T11:25:27.178Z,43.67
2018-03-21T11:27:54.741Z,39.50
2018-03-21T11:30:22.290Z,41.37
2018-03-21T11:32:49.857Z,55.87
2018-03-21T11:35:17.417Z,49.93
2018-03-21T11:37:44.979Z,50.83
2018-03-21T11:40:12.645Z,51.03
2018-03-21T11:42:40.198Z,51.20
2018-03-21T11:45:07.796Z,38.40
2018-03-21T11:47:35.356Z,41.70
2018-03-21T11:50:02.926Z,38.87
2018-03-21T11:52:30.522Z,39.67
2018-03-21T11:54:58.883Z,38.63
2018-03-21T11:57:26.461Z,36.20
2018-03-21T11:59:54.783Z,33.27
2018-03-21T12:02:22.382Z,37.80
2018-03-21T12:04:50.709Z,33.93
2018-03-21T12:07:18.292Z,39.07
2018-03-21T12:09:45.886Z,31.17
2018-03-21T12:12:14.222Z,27.40
2018-03-21T12:14:41.833Z,36.73
2018-03-21T12:17:09.379Z,30.67
2018-03-21T12:19:37.773Z,29.67
2018-03-21T12:22:05.489Z,34.00
2018-03-21T12:24:33.208Z,32.17
2018-03-21T12:27:00.778Z,31.40
2018-03-21T12:29:28.549Z,37.57
2018-03-21T12:31:56.165Z,33.50
2018-03-21T12:34:23.762Z,32.03
2018-03-21T12:36:51.353Z,35.67
2018-03-21T12:39:18.921Z,41.13
2018-03-21T12:41:46.527Z,38.60
2018-03-21T12:44:14.204Z,36.83
2018-03-21T12:46:41.761Z,32.57
2018-03-21T12:49:09.343Z,35.57
2018-03-21T12:51:36.881Z,36.80
2018-03-21T12:54:05.977Z,31.50
2018-03-21T12:56:35.952Z,30.47
2018-03-21T12:59:03.514Z,33.33
2018-03-21T13:01:31.073Z,29.23
2018-03-21T13:03:58.768Z,28.43
2018-03-21T13:06:27.056Z,33.33
2018-03-21T13:08:54.930Z,28.23
2018-03-21T13:11:22.539Z,28.60
2018-03-21T13:13:50.120Z,26.73
2018-03-21T13:16:18.597Z,22.37
2018-03-21T13:18:47.014Z,24.00
2018-03-21T13:21:14.703Z,24.20
2018-03-21T13:23:42.224Z,21.53
2018-03-21T13:26:09.830Z,20.90
2018-03-21T13:28:39.114Z,24.63
2018-03-21T13:31:06.700Z,22.10
2018-03-21T13:33:35.022Z,21.73
2018-03-21T13:36:02.597Z,19.63
2018-03-21T13:38:30.150Z,21.33
2018-03-21T13:40:57.713Z,20.13
2018-03-21T13:43:25.249Z,20.13
2018-03-21T13:45:52.832Z,20.13
2018-03-21T13:48:20.380Z,21.87
2018-03-21T13:50:47.960Z,18.90
2018-03-21T13:53:15.525Z,20.87
2018-03-21T13:55:43.073Z,22.10
2018-03-21T13:58:10.804Z,21.30
2018-03-21T14:00:38.373Z,22.13
2018-03-21T14:03:06.722Z,20.67
2018-03-21T14:05:34.340Z,24.93
2018-03-21T14:08:01.913Z,22.77
2018-03-21T14:10:29.474Z,25.03
2018-03-21T14:12:57.050Z,25.30
2018-03-21T14:15:24.611Z,19.07
2018-03-21T14:17:52.299Z,18.93
2018-03-21T14:20:20.624Z,19.93
2018-03-21T14:22:48.198Z,16.83
2018-03-21T14:25:15.747Z,20.80
2018-03-21T14:27:43.329Z,19.97
2018-03-21T14:30:10.906Z,19.13
2018-03-21T14:32:38.462Z,21.97
2018-03-21T14:35:06.018Z,18.07
2018-03-21T14:37:33.753Z,22.67
2018-03-21T14:40:01.310Z,21.30
2018-03-21T14:42:28.869Z,23.47
2018-03-21T14:44:56.606Z,23.70
2018-03-21T14:47:24.225Z,19.00
2018-03-21T14:49:51.797Z,18.00
2018-03-21T14:52:19.356Z,18.03
2018-03-21T14:54:50.393Z,18.03
2018-03-21T14:57:17.978Z,17.83
2018-03-21T14:59:46.296Z,21.37
2018-03-21T15:02:13.872Z,20.03
2018-03-21T15:04:41.434Z,23.77
2018-03-21T15:07:08.977Z,23.13
2018-03-21T15:09:36.558Z,25.27
2018-03-21T15:12:04.119Z,21.70
2018-03-21T15:14:31.794Z,21.63
2018-03-21T15:16:59.373Z,22.53
2018-03-21T15:19:27.718Z,19.50
2018-03-21T15:21:55.343Z,21.13
2018-03-21T15:24:23.098Z,18.67
2018-03-21T15:26:50.658Z,18.37
2018-03-21T15:29:18.264Z,17.67
2018-03-21T15:31:45.814Z,22.30
2018-03-21T15:34:13.456Z,20.43
2018-03-21T15:36:41.002Z,15.43
2018-03-21T15:39:08.616Z,17.90
2018-03-21T15:41:36.182Z,14.63
2018-03-21T15:44:03.722Z,20.27
2018-03-21T15:46:31.282Z,19.03
2018-03-21T15:48:58.927Z,20.43
2018-03-21T15:51:26.533Z,19.77
2018-03-21T15:53:54.837Z,18.43
2018-03-21T15:56:22.406Z,22.17
2018-03-21T15:58:49.969Z,16.03
2018-03-21T16:01:17.574Z,17.80
2018-03-21T16:03:45.136Z,12.97
2018-03-21T16:06:12.723Z,14.33
2018-03-21T16:08:41.031Z,16.10
2018-03-21T16:11:08.610Z,15.43
2018-03-21T16:13:36.189Z,12.10
2018-03-21T16:16:03.749Z,15.20
2018-03-21T16:18:31.296Z,14.60
2018-03-21T16:20:58.878Z,14.83
2018-03-21T16:23:27.219Z,16.37
2018-03-21T16:25:54.984Z,14.90
2018-03-21T16:28:22.551Z,14.37
2018-03-21T16:30:50.095Z,11.23
2018-03-21T16:33:17.670Z,18.70
2018-03-21T16:35:45.217Z,12.93
2018-03-21T16:38:12.785Z,11.83
2018-03-21T16:40:40.357Z,12.47
2018-03-21T16:43:07.938Z,14.37
2018-03-21T16:45:35.586Z,11.47
2018-03-21T16:48:03.173Z,13.00
2018-03-21T16:50:30.714Z,14.27
2018-03-21T16:52:58.273Z,11.60
2018-03-21T16:55:25.854Z,16.30
2018-03-21T16:57:53.436Z,15.53
2018-03-21T17:00:20.998Z,13.23
2018-03-21T17:02:49.394Z,15.83
2018-03-21T17:05:17.158Z,13.30
2018-03-21T17:07:44.708Z,14.37
2018-03-21T17:10:12.384Z,10.83
2018-03-21T17:12:39.941Z,13.27
2018-03-21T17:15:07.677Z,14.47
2018-03-21T17:17:36.297Z,12.40
2018-03-21T17:20:03.860Z,15.27
2018-03-21T17:22:31.421Z,15.07
2018-03-21T17:24:59.002Z,16.10
2018-03-21T17:27:26.577Z,14.80
2018-03-21T17:29:55.637Z,20.10
2018-03-21T17:32:24.436Z,14.30
2018-03-21T17:34:52.801Z,14.17
2018-03-21T17:37:20.348Z,13.27
2018-03-21T17:39:48.015Z,15.83
2018-03-21T17:42:18.325Z,16.87
2018-03-21T17:44:46.717Z,18.73
2018-03-21T17:47:15.302Z,13.67
2018-03-21T17:49:42.963Z,17.93
2018-03-21T17:52:10.526Z,16.17
2018-03-21T17:54:38.184Z,14.10
2018-03-21T17:57:05.745Z,21.40
2018-03-21T17:59:33.301Z,20.97
2018-03-21T18:02:00.873Z,21.70
2018-03-21T18:04:28.441Z,17.40
2018-03-21T18:06:56.082Z,24.50
2018-03-21T18:09:23.625Z,21.20
2018-03-21T18:11:51.205Z,20.80
2018-03-21T18:14:18.766Z,25.90
2018-03-21T18:16:46.319Z,20.57
2018-03-21T18:19:13.873Z,18.30
2018-03-21T18:21:41.436Z,31.97
2018-03-21T18:24:09.013Z,20.17
2018-03-21T18:26:36.579Z,22.67
2018-03-21T18:29:04.158Z,22.20
2018-03-21T18:31:31.710Z,19.97
2018-03-21T18:33:59.289Z,20.10
2018-03-21T18:36:26.845Z,21.03
2018-03-21T18:38:55.196Z,15.43
2018-03-21T18:41:22.764Z,19.30
2018-03-21T18:43:50.312Z,16.90
2018-03-21T18:46:17.860Z,22.53
2018-03-21T18:48:45.459Z,25.10
2018-03-21T18:51:12.989Z,27.27
2018-03-21T18:53:40.560Z,18.60
2018-03-21T18:56:08.134Z,68.73
2018-03-21T18:58:35.711Z,22.33
2018-03-21T19:01:03.289Z,30.50
2018-03-21T19:03:36.355Z,23.63
2018-03-21T19:06:03.977Z,19.37
2018-03-21T19:08:31.646Z,21.77
2018-03-21T19:10:59.230Z,20.37
2018-03-21T19:13:26.812Z,21.17
2018-03-21T19:15:54.395Z,24.17
2018-03-21T19:18:22.744Z,24.20
2018-03-21T19:20:51.904Z,19.03
2018-03-21T19:23:19.579Z,21.30
2018-03-21T19:25:47.138Z,22.37
2018-03-21T19:28:14.705Z,26.90
2018-03-21T19:30:42.447Z,23.47
2018-03-21T19:33:10.008Z,22.17
2018-03-21T19:35:37.750Z,22.87
2018-03-21T19:38:05.321Z,26.23
2018-03-21T19:40:32.887Z,21.30
2018-03-21T19:43:00.477Z,21.73
2018-03-21T19:45:28.040Z,25.70
2018-03-21T19:47:55.761Z,21.83
2018-03-21T19:50:23.447Z,21.63
2018-03-21T19:52:51.005Z,23.97
2018-03-21T19:55:18.650Z,22.77
2018-03-21T19:57:46.327Z,18.20
2018-03-21T20:00:13.885Z,24.23
2018-03-21T20:02:41.521Z,24.20
2018-03-21T20:05:09.109Z,20.03
2018-03-21T20:07:36.688Z,31.13
2018-03-21T20:10:07.945Z,28.33
2018-03-21T20:12:35.701Z,22.93
2018-03-21T20:15:03.278Z,32.00
2018-03-21T20:17:31.895Z,20.50
2018-03-21T20:20:00.215Z,22.40
2018-03-21T20:22:27.786Z,26.10
2018-03-21T20:24:55.419Z,19.97
2018-03-21T20:27:22.973Z,27.87
2018-03-21T20:29:50.608Z,20.53
2018-03-21T20:32:18.167Z,25.67
2018-03-21T20:34:47.457Z,27.60
2018-03-21T20:37:15.802Z,26.33
2018-03-21T20:39:43.383Z,22.20
2018-03-21T20:42:10.978Z,24.90
2018-03-21T20:44:38.702Z,25.40
2018-03-21T20:47:06.276Z,23.10
2018-03-21T20:49:34.582Z,25.20
2018-03-21T20:52:02.146Z,25.87
2018-03-21T20:54:29.691Z,26.13
2018-03-21T20:56:57.278Z,25.77
2018-03-21T20:59:24.867Z,24.00
2018-03-21T21:01:52.706Z,30.03
2018-03-21T21:04:20.409Z,24.50
2018-03-21T21:06:48.739Z,27.70
2018-03-21T21:09:16.395Z,29.37
2018-03-21T21:11:43.983Z,29.53
2018-03-21T21:14:11.627Z,31.67
2018-03-21T21:16:39.198Z,27.30
2018-03-21T21:19:06.797Z,25.33
2018-03-21T21:21:35.224Z,28.33
2018-03-21T21:24:02.799Z,28.97
2018-03-21T21:26:30.357Z,28.30
2018-03-21T21:28:57.921Z,27.60
2018-03-21T21:31:25.497Z,29.20
2018-03-21T21:33:53.076Z,31.27
2018-03-21T21:36:20.637Z,32.70
2018-03-21T21:38:48.302Z,28.33
2018-03-21T21:41:15.857Z,28.57
2018-03-21T21:43:43.436Z,29.80
2018-03-21T21:46:11.799Z,30.53
2018-03-21T21:48:39.381Z,34.40
2018-03-21T21:51:07.826Z,33.10
2018-03-21T21:53:35.413Z,29.47
2018-03-21T21:56:03.761Z,32.47
2018-03-21T21:58:31.358Z,31.37
2018-03-21T22:00:59.680Z,35.03
2018-03-21T22:03:27.371Z,31.03
2018-03-21T22:05:54.934Z,28.27
2018-03-21T22:08:22.493Z,31.10
2018-03-21T22:10:50.096Z,32.80
2018-03-21T22:13:18.691Z,32.93
2018-03-21T22:15:46.255Z,34.90
2018-03-21T22:18:13.961Z,28.13
2018-03-21T22:20:41.544Z,37.27
2018-03-21T22:23:09.900Z,36.23
2018-03-21T22:25:37.465Z,29.63
2018-03-21T22:28:04.989Z,34.63
2018-03-21T22:30:32.644Z,30.77
2018-03-21T22:33:02.392Z,36.57
2018-03-21T22:35:29.969Z,32.97
2018-03-21T22:37:58.278Z,37.00
2018-03-21T22:40:25.865Z,30.37
2018-03-21T22:42:53.420Z,33.50
2018-03-21T22:45:20.983Z,34.90
2018-03-21T22:47:48.565Z,35.70
2018-03-21T22:50:16.125Z,33.63
2018-03-21T22:52:43.702Z,34.13
2018-03-21T22:55:12.051Z,30.17
2018-03-21T22:57:39.632Z,35.93
2018-03-21T23:00:07.176Z,39.57
2018-03-21T23:02:34.789Z,43.37
2018-03-21T23:05:02.366Z,38.10
2018-03-21T23:07:30.108Z,36.07
2018-03-21T23:09:57.692Z,35.50
2018-03-21T23:12:25.261Z,34.57
2018-03-21T23:14:52.823Z,36.53
2018-03-21T23:17:20.483Z,38.57
2018-03-21T23:19:48.078Z,34.30
2018-03-21T23:22:15.656Z,37.17
2018-03-21T23:24:44.001Z,36.30
2018-03-21T23:27:11.729Z,34.33
2018-03-21T23:29:39.400Z,35.70
2018-03-21T23:32:06.968Z,35.90
2018-03-21T23:34:34.567Z,39.63
2018-03-21T23:37:02.174Z,34.13
2018-03-21T23:39:29.762Z,36.67
2018-03-21T23:41:57.394Z,32.77
2018-03-21T23:44:24.990Z,35.07
2018-03-21T23:46:52.543Z,32.43
2018-03-21T23:49:20.136Z,37.13
2018-03-21T23:51:47.719Z,37.63
2018-03-21T23:54:15.298Z,34.33
2018-03-21T23:56:43.740Z,32.47
2018-03-21T23:59:11.338Z,35.40
